createdAt,value
2024-01-15T00:00:01.212Z,-0.06
2024-01-15T00:02:34.670Z,0.16
2024-01-15T00:05:03.595Z,0.30
2024-01-15T00:07:31.951Z,-0.05
2024-01-15T00:10:02.499Z,0.57
2024-01-15T00:12:34.810Z,0.09
2024-01-15T00:15:03.410Z,-0.01
2024-01-15T00:17:31.625Z,-0.33
2024-01-15T00:20:00.330Z,0.23
2024-01-15T00:22:28.994Z,0.48
2024-01-15T00:24:57.629Z,0.25
2024-01-15T00:27:27.314Z,0.76
2024-01-15T00:29:56.326Z,0.29
2024-01-15T00:32:24.583Z,0.15
2024-01-15T00:34:53.271Z,-0.06
2024-01-15T00:37:21.598Z,-0.17
2024-01-15T00:39:50.305Z,-0.07
2024-01-15T00:42:18.971Z,-0.35
2024-01-15T00:44:48.846Z,0.59
2024-01-15T00:47:17.248Z,0.28
2024-01-15T00:49:46.382Z,0.08
2024-01-15T00:52:14.643Z,-0.01
2024-01-15T00:54:43.461Z,-0.15
2024-01-15T00:57:11.889Z,-0.08
2024-01-15T00:59:41.186Z,0.29
2024-01-15T01:02:11.086Z,0.66
2024-01-15T01:04:39.790Z,-0.04
2024-01-15T01:07:08.405Z,-0.12
2024-01-15T01:09:37.333Z,0.30
2024-01-15T01:12:07.327Z,0.10
2024-01-15T01:14:36.267Z,0.17
2024-01-15T01:17:04.693Z,0.30
2024-01-15T01:19:34.766Z,0.60
2024-01-15T01:22:03.130Z,0.02
2024-01-15T01:24:31.650Z,-0.15
2024-01-15T01:27:00.081Z,-0.21
2024-01-15T01:29:28.995Z,-0.18
2024-01-15T01:31:57.840Z,-0.03
2024-01-15T01:34:26.490Z,0.05
2024-01-15T01:36:56.249Z,0.66
2024-01-15T01:39:24.700Z,-0.04
2024-01-15T01:41:53.186Z,0.05
2024-01-15T01:44:21.772Z,0.06
2024-01-15T01:46:50.178Z,0.26
2024-01-15T01:49:19.133Z,0.33
2024-01-15T01:51:47.666Z,0.22
2024-01-15T01:54:17.749Z,0.50
2024-01-15T01:56:46.189Z,0.31
2024-01-15T01:59:15.115Z,0.25
2024-01-15T02:01:44.164Z,0.19
2024-01-15T02:04:14.071Z,0.32
2024-01-15T02:06:43.178Z,0.36
2024-01-15T02:09:11.962Z,-0.04
2024-01-15T02:11:41.907Z,0.46
2024-01-15T02:14:11.586Z,-0.12
2024-01-15T02:16:39.819Z,-0.61
2024-01-15T02:19:09.066Z,-0.40
2024-01-15T02:21:37.406Z,-0.54
2024-01-15T02:24:07.937Z,0.26
2024-01-15T02:26:38.303Z,-0.20
2024-01-15T02:29:07.373Z,0.19
2024-01-15T02:31:35.735Z,0.14
2024-01-15T02:34:04.406Z,-0.01
2024-01-15T02:36:32.985Z,-0.19
2024-01-15T02:39:01.659Z,-0.05
2024-01-15T02:41:31.445Z,0.49
2024-01-15T02:44:00.180Z,-0.03
2024-01-15T02:46:28.602Z,0.05
2024-01-15T02:48:57.353Z,-0.06
2024-01-15T02:51:25.986Z,-0.29
2024-01-15T02:53:54.670Z,-0.22
2024-01-15T02:56:22.965Z,-0.17
2024-01-15T02:58:52.730Z,0.39
2024-01-15T03:01:21.612Z,-0.76
2024-01-15T03:03:50.339Z,-0.59
2024-01-15T03:06:18.769Z,-0.92
2024-01-15T03:08:47.294Z,-0.95
2024-01-15T03:11:15.605Z,-0.32
2024-01-15T03:13:44.688Z,-0.28
2024-01-15T03:16:14.399Z,0.63
2024-01-15T03:18:43.229Z,-0.50
2024-01-15T03:21:11.439Z,-0.15
2024-01-15T03:23:40.254Z,-0.46
2024-01-15T03:26:08.408Z,-0.32
2024-01-15T03:28:37.082Z,-0.63
2024-01-15T03:31:05.759Z,-0.03
2024-01-15T03:33:35.814Z,0.51
2024-01-15T03:36:04.194Z,-0.33
2024-01-15T03:38:32.970Z,-0.41
2024-01-15T03:41:01.146Z,-0.42
2024-01-15T03:43:30.095Z,-0.58
2024-01-15T03:45:58.361Z,-0.70
2024-01-15T03:48:27.384Z,-0.49
2024-01-15T03:50:57.038Z,-0.02
2024-01-15T03:53:25.515Z,-0.42
2024-01-15T03:55:54.121Z,-0.20
2024-01-15T03:58:22.554Z,-0.29
2024-01-15T04:00:50.812Z,-0.66
2024-01-15T04:03:19.426Z,-0.59
2024-01-15T04:05:48.055Z,-0.42
2024-01-15T04:08:18.038Z,-0.09
2024-01-15T04:10:46.696Z,-0.21
2024-01-15T04:13:15.159Z,-0.22
2024-01-15T04:15:43.603Z,-0.13
2024-01-15T04:18:12.237Z,0.01
2024-01-15T04:20:40.738Z,0.01
2024-01-15T04:23:09.216Z,-0.29
2024-01-15T04:25:38.953Z,0.04
2024-01-15T04:28:07.746Z,-0.28
2024-01-15T04:30:36.179Z,-0.51
2024-01-15T04:33:05.118Z,-0.83
2024-01-15T04:35:33.616Z,-0.57
2024-01-15T04:38:02.084Z,-0.98
2024-01-15T04:40:30.378Z,-0.70
2024-01-15T04:43:00.302Z,-0.07
2024-01-15T04:45:30.148Z,-0.57
2024-01-15T04:47:59.199Z,-0.81
2024-01-15T04:50:27.618Z,-0.95
2024-01-15T04:52:56.188Z,-0.77
2024-01-15T04:55:24.572Z,-0.48
2024-01-15T04:57:53.138Z,-0.83
2024-01-15T05:00:23.159Z,-0.35
2024-01-15T05:02:51.835Z,-1.20
2024-01-15T05:05:20.337Z,-1.16
2024-01-15T05:07:49.336Z,-0.86
2024-01-15T05:10:17.636Z,-1.02
2024-01-15T05:12:46.496Z,-0.93
2024-01-15T05:15:15.002Z,-1.18
2024-01-15T05:17:45.017Z,-0.63
2024-01-15T05:20:13.864Z,-1.02
2024-01-15T05:22:42.485Z,-1.22
2024-01-15T05:25:10.922Z,-0.97
2024-01-15T05:27:39.404Z,-1.15
2024-01-15T05:30:08.695Z,-0.93
2024-01-15T05:32:37.387Z,-1.38
2024-01-15T05:35:07.753Z,-0.83
2024-01-15T05:37:36.646Z,-1.56
2024-01-15T05:40:06.660Z,-1.43
2024-01-15T05:42:35.267Z,-1.48
2024-01-15T05:45:05.797Z,-1.35
2024-01-15T05:47:34.483Z,-1.62
2024-01-15T05:50:03.673Z,-0.99
2024-01-15T05:52:33.793Z,-0.86
2024-01-15T05:55:02.202Z,-1.15
2024-01-15T05:57:30.754Z,-0.96
2024-01-15T05:59:59.230Z,-0.94
2024-01-15T06:02:27.876Z,-0.94
2024-01-15T06:04:56.767Z,-0.84
2024-01-15T06:07:25.588Z,-0.94
2024-01-15T06:09:55.453Z,-0.58
2024-01-15T06:12:25.010Z,-0.86
2024-01-15T06:14:53.676Z,-1.08
2024-01-15T06:17:22.466Z,-0.81
2024-01-15T06:19:51.067Z,-0.87
2024-01-15T06:22:20.357Z,-0.48
2024-01-15T06:24:48.833Z,-0.57
2024-01-15T06:27:18.967Z,-0.27
2024-01-15T06:29:50.692Z,-0.22
2024-01-15T06:32:19.847Z,-0.84
2024-01-15T06:34:48.190Z,-0.93
2024-01-15T06:37:16.893Z,-0.91
2024-01-15T06:39:45.322Z,-0.91
2024-01-15T06:42:14.200Z,-0.88
2024-01-15T06:44:43.738Z,-0.03
2024-01-15T06:47:12.183Z,-0.61
2024-01-15T06:49:40.524Z,-0.69
2024-01-15T06:52:09.378Z,-0.79
2024-01-15T06:54:37.647Z,-0.57
2024-01-15T06:57:08.177Z,-0.57
2024-01-15T06:59:36.864Z,-0.26
2024-01-15T07:02:07.239Z,-0.14
2024-01-15T07:04:39.201Z,-0.39
2024-01-15T07:07:09.103Z,-0.34
2024-01-15T07:09:37.656Z,-0.52
2024-01-15T07:12:06.671Z,-0.66
2024-01-15T07:14:36.704Z,-0.69
2024-01-15T07:17:07.755Z,-0.37
2024-01-15T07:19:36.107Z,-0.91
2024-01-15T07:22:05.661Z,-0.53
2024-01-15T07:24:35.363Z,-0.73
2024-01-15T07:27:06.050Z,-1.06
2024-01-15T07:29:37.245Z,-0.76
2024-01-15T07:32:09.016Z,-0.18
2024-01-15T07:34:37.398Z,-0.57
2024-01-15T07:37:06.159Z,-0.60
2024-01-15T07:39:34.421Z,-0.99
2024-01-15T07:42:03.692Z,-0.47
2024-01-15T07:44:31.949Z,-0.43
2024-01-15T07:47:00.551Z,-0.57
2024-01-15T07:49:31.023Z,-0.03
2024-01-15T07:51:59.750Z,-0.61
2024-01-15T07:54:28.204Z,-0.04
2024-01-15T07:56:57.464Z,0.18
2024-01-15T07:59:26.093Z,0.16
2024-01-15T08:01:55.277Z,-0.13
2024-01-15T08:04:24.239Z,-0.22
2024-01-15T08:06:54.450Z,0.07
2024-01-15T08:09:23.212Z,-0.24
2024-01-15T08:11:52.083Z,-0.04
2024-01-15T08:14:20.585Z,-0.07
2024-01-15T08:16:49.172Z,0.01
2024-01-15T08:19:17.759Z,0.02
2024-01-15T08:21:46.580Z,-0.06
2024-01-15T08:24:18.148Z,0.61
2024-01-15T08:26:47.252Z,0.20
2024-01-15T08:29:15.711Z,0.74
2024-01-15T08:31:44.410Z,0.36
2024-01-15T08:34:12.782Z,0.12
2024-01-15T08:36:42.005Z,0.26
2024-01-15T08:39:10.710Z,0.26
2024-01-15T08:41:40.628Z,0.95
2024-01-15T08:44:09.130Z,0.79
2024-01-15T08:46:37.918Z,0.72
2024-01-15T08:49:07.406Z,0.85
2024-01-15T08:51:36.155Z,1.16
2024-01-15T08:54:04.494Z,1.41
2024-01-15T08:56:33.225Z,1.31
2024-01-15T08:59:02.729Z,1.42
2024-01-15T09:01:32.232Z,0.75
2024-01-15T09:04:00.972Z,0.78
2024-01-15T09:06:33.125Z,0.66
2024-01-15T09:09:02.596Z,0.89
2024-01-15T09:11:31.453Z,0.95
2024-01-15T09:14:00.193Z,1.30
2024-01-15T09:16:30.422Z,2.12
2024-01-15T09:18:59.237Z,1.62
2024-01-15T09:21:28.349Z,1.66
2024-01-15T09:23:56.556Z,1.45
2024-01-15T09:26:25.324Z,1.41
2024-01-15T09:28:54.511Z,1.51
2024-01-15T09:31:23.241Z,0.95
2024-01-15T09:33:57.373Z,1.22
2024-01-15T09:36:26.893Z,1.18
2024-01-15T09:38:55.042Z,1.55
2024-01-15T09:41:23.656Z,1.90
2024-01-15T09:43:53.302Z,2.04
2024-01-15T09:46:21.818Z,1.88
2024-01-15T09:48:50.698Z,1.90
2024-01-15T09:51:20.586Z,2.42
2024-01-15T09:53:49.454Z,2.64
2024-01-15T09:56:18.304Z,2.52
2024-01-15T09:58:46.734Z,3.08
2024-01-15T10:01:16.659Z,3.66
2024-01-15T10:03:45.259Z,4.49
2024-01-15T10:06:14.140Z,5.69
2024-01-15T10:08:43.894Z,6.34
2024-01-15T10:11:12.487Z,5.18
2024-01-15T10:13:42.104Z,5.14
2024-01-15T10:16:12.549Z,4.60
2024-01-15T10:18:41.307Z,4.85
2024-01-15T10:21:10.373Z,4.47
2024-01-15T10:23:38.593Z,4.32
2024-01-15T10:26:08.622Z,4.05
2024-01-15T10:28:36.829Z,3.73
2024-01-15T10:31:06.402Z,3.91
2024-01-15T10:33:35.124Z,3.97
2024-01-15T10:36:04.004Z,4.44
2024-01-15T10:38:32.517Z,5.25
2024-01-15T10:41:01.086Z,4.92
2024-01-15T10:43:30.892Z,4.88
2024-01-15T10:45:59.700Z,3.77
2024-01-15T10:48:30.139Z,4.08
2024-01-15T10:50:59.579Z,4.25
2024-01-15T10:53:29.294Z,3.78
2024-01-15T10:55:58.900Z,3.76
2024-01-15T10:58:30.938Z,3.23
2024-01-15T11:00:59.725Z,2.25
2024-01-15T11:03:28.502Z,2.03
2024-01-15T11:05:56.111Z,1.90
2024-01-15T11:08:24.484Z,2.20
2024-01-15T11:10:53.758Z,2.01
2024-01-15T11:13:26.300Z,2.09
2024-01-15T11:16:02.754Z,2.27
2024-01-15T11:18:32.167Z,1.76
2024-01-15T11:21:24.514Z,2.73
2024-01-15T11:23:55.057Z,1.80
2024-01-15T11:26:33.936Z,2.11
2024-01-15T11:29:04.327Z,1.56
2024-01-15T11:32:02.046Z,2.27
2024-01-15T11:34:53.972Z,2.32
2024-01-15T11:37:24.998Z,1.66
2024-01-15T11:39:56.983Z,2.29
2024-01-15T11:42:29.089Z,1.52
2024-01-15T11:44:57.526Z,1.43
2024-01-15T11:48:05.863Z,2.19
2024-01-15T11:50:34.735Z,1.26
2024-01-15T11:53:07.333Z,1.44
2024-01-15T11:55:37.593Z,0.91
2024-01-15T11:58:11.254Z,1.34
2024-01-15T12:00:42.991Z,0.82
2024-01-15T12:03:13.962Z,0.20
2024-01-15T12:05:43.382Z,0.31
2024-01-15T12:08:13.113Z,0.59
2024-01-15T12:10:43.258Z,0.93
2024-01-15T12:13:14.305Z,0.79
2024-01-15T12:15:44.470Z,0.37
2024-01-15T12:18:16.664Z,0.75
2024-01-15T12:20:48.827Z,0.37
2024-01-15T12:23:19.316Z,0.33
2024-01-15T12:25:48.578Z,0.50
2024-01-15T12:28:18.105Z,0.11
2024-01-15T12:30:51.033Z,0.76
2024-01-15T12:33:22.754Z,0.96
2024-01-15T12:35:51.240Z,0.32
2024-01-15T12:38:22.270Z,0.56
2024-01-15T12:40:51.143Z,0.39
2024-01-15T12:43:19.811Z,0.55
2024-01-15T12:45:48.363Z,0.63
2024-01-15T12:48:19.385Z,0.83
2024-01-15T12:50:49.813Z,1.09
2024-01-15T12:53:19.113Z,0.41
2024-01-15T12:55:47.642Z,0.41
2024-01-15T12:58:17.995Z,0.51
2024-01-15T13:00:48.386Z,0.46
2024-01-15T13:03:17.285Z,0.30
2024-01-15T13:05:46.592Z,0.69
2024-01-15T13:08:16.764Z,0.73
2024-01-15T13:10:45.475Z,0.31
2024-01-15T13:13:14.251Z,0.42
2024-01-15T13:15:43.332Z,-0.08
2024-01-15T13:18:12.055Z,0.14
2024-01-15T13:20:40.715Z,0.31
2024-01-15T13:23:11.138Z,-0.22
2024-01-15T13:25:41.033Z,0.30
2024-01-15T13:28:10.512Z,-0.12
2024-01-15T13:30:39.838Z,-0.42
2024-01-15T13:33:09.841Z,-0.36
2024-01-15T13:35:38.335Z,-0.26
2024-01-15T13:38:07.347Z,-0.56
2024-01-15T13:40:35.542Z,-0.62
2024-01-15T13:43:09.612Z,0.10
2024-01-15T13:45:38.665Z,-0.35
2024-01-15T13:48:09.490Z,0.04
2024-01-15T13:50:38.194Z,-0.42
2024-01-15T13:53:06.724Z,-0.40
2024-01-15T13:55:35.009Z,-0.18
2024-01-15T13:58:07.011Z,-0.28
2024-01-15T14:00:35.617Z,-0.48
2024-01-15T14:03:04.818Z,-0.29
2024-01-15T14:05:33.928Z,-0.57
2024-01-15T14:08:02.683Z,-0.22
2024-01-15T14:10:30.838Z,-0.60
2024-01-15T14:12:59.363Z,-0.66
2024-01-15T14:15:29.059Z,-0.11
2024-01-15T14:17:59.212Z,-0.55
2024-01-15T14:20:27.760Z,-0.39
2024-01-15T14:22:56.756Z,-0.67
2024-01-15T14:25:25.482Z,-0.48
2024-01-15T14:27:54.073Z,-0.29
2024-01-15T14:30:22.325Z,-0.61
2024-01-15T14:32:52.352Z,-0.17
2024-01-15T14:35:20.861Z,-0.23
2024-01-15T14:37:49.599Z,-0.58
2024-01-15T14:40:18.358Z,-0.53
2024-01-15T14:42:47.256Z,-0.35
2024-01-15T14:45:15.872Z,-0.41
2024-01-15T14:47:45.680Z,-0.34
2024-01-15T14:50:15.968Z,0.13
2024-01-15T14:52:46.148Z,-0.31
2024-01-15T14:55:15.391Z,-0.52
2024-01-15T14:57:44.853Z,-0.40
2024-01-15T15:00:17.061Z,-0.29
2024-01-15T15:02:46.798Z,-0.62
2024-01-15T15:05:18.338Z,-0.26
2024-01-15T15:07:49.205Z,-1.04
2024-01-15T15:10:17.960Z,-1.09
2024-01-15T15:12:46.655Z,-0.90
2024-01-15T15:15:21.493Z,-1.10
2024-01-15T15:17:50.469Z,-0.96
2024-01-15T15:20:21.778Z,-0.43
2024-01-15T15:22:50.459Z,-1.53
2024-01-15T15:25:19.364Z,-0.72
2024-01-15T15:27:48.542Z,-0.69
2024-01-15T15:30:17.623Z,-0.71
2024-01-15T15:32:46.260Z,-1.17
2024-01-15T15:35:15.299Z,-0.99
2024-01-15T15:37:45.642Z,-0.43
2024-01-15T15:40:14.342Z,-0.78
2024-01-15T15:42:43.399Z,-0.78
2024-01-15T15:45:12.269Z,-1.02
2024-01-15T15:47:41.031Z,-0.90
2024-01-15T15:50:10.485Z,-0.55
2024-01-15T15:52:39.533Z,-0.86
2024-01-15T15:55:10.408Z,-0.62
2024-01-15T15:57:38.803Z,0.18
2024-01-15T16:00:09.257Z,-0.61
2024-01-15T16:02:38.228Z,-0.73
2024-01-15T16:05:11.301Z,-0.58
2024-01-15T16:07:40.169Z,-0.87
2024-01-15T16:10:11.191Z,-0.70
2024-01-15T16:12:40.387Z,0.42
2024-01-15T16:15:20.068Z,-0.19
2024-01-15T16:23:17.178Z,-1.09
2024-01-15T16:23:31.546Z,-1.17
2024-01-15T16:24:04.637Z,-1.13
2024-01-15T16:26:18.102Z,-0.76
2024-01-15T16:28:47.071Z,-1.14
2024-01-15T16:31:17.568Z,-1.31
2024-01-15T16:33:50.237Z,-1.52
2024-01-15T16:36:23.074Z,-0.76
2024-01-15T16:38:52.329Z,-1.12
2024-01-15T16:41:22.225Z,-0.83
2024-01-15T16:43:50.862Z,-1.28
2024-01-15T16:46:19.588Z,-1.62
2024-01-15T16:48:48.269Z,-1.37
2024-01-15T16:51:17.038Z,-1.48
2024-01-15T16:53:45.768Z,-1.06
2024-01-15T16:56:14.081Z,-0.98
2024-01-15T16:58:44.046Z,-0.38
2024-01-15T17:01:13.024Z,-1.01
2024-01-15T17:03:41.728Z,-1.07
2024-01-15T17:06:09.983Z,-1.07
2024-01-15T17:08:38.772Z,-1.21
2024-01-15T17:11:07.215Z,-1.15
2024-01-15T17:13:36.038Z,-0.93
2024-01-15T17:16:07.239Z,-0.39
2024-01-15T17:18:35.944Z,-0.75
2024-01-15T17:21:04.199Z,-0.71
2024-01-15T17:23:33.160Z,-0.45
2024-01-15T17:26:01.475Z,-0.58
2024-01-15T17:28:30.215Z,-0.63
2024-01-15T17:31:00.044Z,-0.64
2024-01-15T17:33:30.239Z,-0.10
2024-01-15T17:36:00.396Z,-0.23
2024-01-15T17:38:30.207Z,-0.42
2024-01-15T17:40:59.151Z,-0.82
2024-01-15T17:43:28.358Z,-0.65
2024-01-15T17:46:01.844Z,-0.54
2024-01-15T17:48:32.569Z,-0.09
2024-01-15T17:51:01.753Z,-0.71
2024-01-15T17:53:30.358Z,-1.00
2024-01-15T17:55:58.994Z,-0.46
2024-01-15T17:58:31.998Z,-0.59
2024-01-15T18:01:03.195Z,-0.50
2024-01-15T18:03:33.347Z,-0.01
2024-01-15T18:06:02.575Z,-0.43
2024-01-15T18:08:31.160Z,-0.84
2024-01-15T18:10:59.677Z,-0.79
2024-01-15T18:13:28.289Z,-0.87
2024-01-15T18:15:58.764Z,-0.51
2024-01-15T18:18:27.703Z,-0.98
2024-01-15T18:20:57.724Z,-0.61
2024-01-15T18:23:26.599Z,-1.01
2024-01-15T18:25:56.850Z,-1.00
2024-01-15T18:28:25.738Z,-1.16
2024-01-15T18:30:54.587Z,-0.96
2024-01-15T18:33:24.448Z,-1.04
2024-01-15T18:35:53.503Z,-0.89
2024-01-15T18:38:23.666Z,-0.62
2024-01-15T18:40:53.027Z,-0.87
2024-01-15T18:43:23.080Z,-1.11
2024-01-15T18:45:51.672Z,-0.99
2024-01-15T18:48:20.594Z,-0.95
2024-01-15T18:50:49.475Z,-0.81
2024-01-15T18:53:18.205Z,-0.49
2024-01-15T18:55:48.096Z,0.07
2024-01-15T18:58:18.135Z,-0.34
2024-01-15T19:00:46.949Z,-0.58
2024-01-15T19:03:15.494Z,-0.71
2024-01-15T19:05:44.657Z,-0.66
2024-01-15T19:08:13.387Z,-0.41
2024-01-15T19:10:41.881Z,-0.27
2024-01-15T19:13:13.399Z,-0.25
2024-01-15T19:15:41.848Z,-0.57
2024-01-15T19:18:11.312Z,-0.43
2024-01-15T19:20:39.984Z,-0.44
2024-01-15T19:23:09.657Z,-0.26
2024-01-15T19:25:38.409Z,-0.45
2024-01-15T19:28:08.437Z,-0.42
2024-01-15T19:30:39.434Z,0.08
2024-01-15T19:33:12.512Z,-0.28
2024-01-15T19:35:41.236Z,-0.48
2024-01-15T19:38:10.465Z,-0.44
2024-01-15T19:40:39.222Z,-0.51
2024-01-15T19:43:08.399Z,-0.68
2024-01-15T19:45:39.441Z,-0.27
2024-01-15T19:48:08.607Z,0.52
2024-01-15T19:50:37.418Z,-1.00
2024-01-15T19:53:06.592Z,-1.03
2024-01-15T19:55:35.385Z,-1.31
2024-01-15T19:58:04.414Z,-1.10
2024-01-15T20:00:33.211Z,-1.17
2024-01-15T20:03:04.047Z,-0.99
2024-01-15T20:05:33.130Z,-1.14
2024-01-15T20:08:05.244Z,-1.46
2024-01-15T20:10:35.253Z,-1.09
2024-01-15T20:13:03.768Z,-1.45
2024-01-15T20:15:32.351Z,-1.48
2024-01-15T20:18:00.988Z,-1.53
2024-01-15T20:20:31.219Z,-1.11
2024-01-15T20:23:01.881Z,-1.44
2024-01-15T20:25:30.722Z,-1.61
2024-01-15T20:27:59.532Z,-1.92
2024-01-15T20:30:29.357Z,-1.83
2024-01-15T20:32:58.295Z,-1.81
2024-01-15T20:35:26.653Z,-1.58
2024-01-15T20:37:56.877Z,-1.16
2024-01-15T20:40:25.196Z,-1.30
2024-01-15T20:42:53.717Z,-1.50
2024-01-15T20:45:23.596Z,-1.42
2024-01-15T20:47:53.444Z,-1.34
2024-01-15T20:50:22.060Z,-1.26
2024-01-15T20:52:50.791Z,-1.40
2024-01-15T20:55:21.045Z,-0.85
2024-01-15T20:57:49.593Z,-1.07
2024-01-15T21:00:22.264Z,-0.14
2024-01-15T21:02:51.495Z,-0.81
2024-01-15T21:05:20.618Z,-0.52
2024-01-15T21:07:51.857Z,-0.10
2024-01-15T21:10:22.849Z,-0.17
2024-01-15T21:12:51.440Z,-0.62
2024-01-15T21:15:19.925Z,-0.94
2024-01-15T21:17:50.523Z,-1.03
2024-01-15T21:20:19.340Z,-1.12
2024-01-15T21:22:47.922Z,-1.17
2024-01-15T21:25:16.377Z,-0.76
2024-01-15T21:27:47.384Z,-0.22
2024-01-15T21:30:17.093Z,-0.67
2024-01-15T21:32:45.817Z,-0.79
2024-01-15T21:35:14.223Z,-0.93
2024-01-15T21:37:44.339Z,-0.93
2024-01-15T21:40:13.596Z,-0.56
2024-01-15T21:42:42.532Z,-0.88
2024-01-15T21:45:12.290Z,-0.19
2024-01-15T21:47:42.452Z,-1.07
2024-01-15T21:50:11.284Z,-1.03
2024-01-15T21:52:39.907Z,-1.14
2024-01-15T21:55:11.017Z,-0.75
2024-01-15T21:57:39.765Z,-0.79
2024-01-15T22:00:09.373Z,-0.57
2024-01-15T22:02:45.162Z,-0.35
2024-01-15T22:05:14.529Z,-1.02
2024-01-15T22:07:44.704Z,-0.89
2024-01-15T22:10:14.201Z,-0.95
2024-01-15T22:12:43.084Z,-1.29
2024-01-15T22:15:14.334Z,-1.03
2024-01-15T22:17:44.578Z,-0.57
2024-01-15T22:20:13.806Z,-0.91
2024-01-15T22:22:42.456Z,-1.18
2024-01-15T22:25:11.014Z,-1.09
2024-01-15T22:27:39.508Z,-1.04
2024-01-15T22:30:10.020Z,-0.77
2024-01-15T22:32:39.121Z,-1.22
2024-01-15T22:35:12.013Z,-0.40
2024-01-15T22:37:44.130Z,-0.79
2024-01-15T22:40:15.335Z,-0.54
2024-01-15T22:42:43.738Z,-0.70
2024-01-15T22:45:16.614Z,-0.46
2024-01-15T22:47:46.534Z,-0.57
2024-01-15T22:50:16.600Z,-0.32
2024-01-15T22:52:44.147Z,-0.58
2024-01-15T22:55:14.101Z,-0.65
2024-01-15T22:57:43.401Z,-0.50
2024-01-15T23:00:19.671Z,-0.21
2024-01-15T23:02:49.148Z,-0.26
2024-01-15T23:05:19.125Z,0.06
2024-01-15T23:07:47.815Z,-0.46
2024-01-15T23:10:16.367Z,-0.74
2024-01-15T23:12:44.977Z,-1.06
2024-01-15T23:15:14.596Z,-0.75
2024-01-15T23:17:45.216Z,-0.67
2024-01-15T23:20:14.201Z,-0.76
2024-01-15T23:22:44.084Z,-0.52
2024-01-15T23:25:12.567Z,-0.92
2024-01-15T23:27:41.146Z,-1.01
2024-01-15T23:30:10.612Z,-0.91
2024-01-15T23:32:39.545Z,-1.40
2024-01-15T23:35:09.143Z,-1.04
2024-01-15T23:37:39.255Z,-0.79
2024-01-15T23:40:10.269Z,-0.16
2024-01-15T23:42:38.905Z,0.72
2024-01-15T23:45:08.663Z,-0.46
2024-01-15T23:47:37.904Z,-0.71
2024-01-15T23:50:06.763Z,-0.55
2024-01-15T23:52:35.342Z,-0.70
2024-01-15T23:55:03.595Z,-0.62
2024-01-15T23:57:33.563Z,-0.18
